MiSS Pezi — OEX2120 — position and weather

sailwx.info

Track history (hours):
 
Tides and Currents Weather Stations Pressure Air Temp Water Temp Dewpoint Dewpoint Depression Visibility Wind Speed Wind Dir Waves Ship Positions

MiSS Pezi

Last reported at 2018-Apr-13 18:39 UTC. Time now 2018-Apr-20 12:47 UTC.
Position N 14°33' W 061°03'.

Length 20 m; draft 2 m.

Type: Pleasure craft. MMSI: 203287200.

Date/timePositionNaut miles runAvg speedWind from/ knotsBaromVisibWave heightAir tempDewpointWater temp
2018-Apr-13 18:39N 14°33' W 061°03'0 0.1
2018-Apr-13 18:24N 14°33' W 061°03'0 0.0
2018-Apr-13 17:58N 14°33' W 061°03'0 0.0
2018-Apr-13 17:30N 14°33' W 061°03'2 0.1
2018-Apr-12 15:50N 14°33' W 061°05'3 6.3
2018-Apr-12 15:23N 14°30' W 061°06'1 1.9
2018-Apr-12 14:52N 14°30' W 061°05'0 0.0
2018-Apr-12 14:29N 14°30' W 061°05'0 0.0
2018-Apr-12 13:40N 14°30' W 061°05'0 0.0
2018-Apr-12 13:29N 14°30' W 061°05'0 0.0
2018-Apr-12 12:58N 14°30' W 061°05'0 0.0
2018-Apr-12 12:28N 14°30' W 061°05'0 0.0
2018-Apr-12 11:43N 14°30' W 061°05'0 0.0
2018-Apr-12 11:25N 14°30' W 061°05'0 0.0
2018-Apr-12 10:40N 14°30' W 061°05'0 0.0
2018-Apr-12 09:43N 14°30' W 061°05'0 0.0
2018-Apr-12 09:28N 14°30' W 061°05'0 0.0
2018-Apr-12 08:49N 14°30' W 061°05'0 0.0
2018-Apr-12 08:28N 14°30' W 061°05'0 0.0
2018-Apr-12 07:56N 14°30' W 061°05'0 0.0
2018-Apr-12 07:20N 14°30' W 061°05'0 0.0
2018-Apr-12 06:58N 14°30' W 061°05'0 0.0
2018-Apr-12 06:28N 14°30' W 061°05'0 0.0
2018-Apr-12 05:55N 14°30' W 061°05'0 0.0
2018-Apr-12 05:28N 14°30' W 061°05'0 0.0
2018-Apr-12 04:55N 14°30' W 061°05'0 0.0
2018-Apr-12 04:28N 14°30' W 061°05'0 0.0
2018-Apr-12 03:53N 14°30' W 061°05'0 0.0
2018-Apr-12 03:23N 14°30' W 061°05'0 0.0
2018-Apr-11 07:44N 14°30' W 061°05'0 0.0
2018-Apr-11 06:35N 14°30' W 061°05'0 0.0
2018-Apr-11 06:25N 14°30' W 061°05'0 0.0
2018-Apr-11 05:55N 14°30' W 061°05'0 0.0
2018-Apr-11 05:13N 14°30' W 061°05'0 0.0
2018-Apr-11 04:55N 14°30' W 061°05'0 0.0
2018-Apr-11 04:22N 14°30' W 061°05'0 0.0
2018-Apr-11 03:52N 14°30' W 061°05'0 0.0
2018-Apr-11 03:22N 14°30' W 061°05'0 0.0
2018-Apr-11 02:55N 14°30' W 061°05'0 0.0
2018-Apr-11 02:28N 14°30' W 061°05'0 0.0
2018-Apr-11 01:58N 14°30' W 061°05'0 0.0
2018-Apr-11 01:28N 14°30' W 061°05'0 0.0
2018-Apr-11 00:58N 14°30' W 061°05'0 0.0
2018-Apr-11 00:25N 14°30' W 061°05'0 0.0
2018-Apr-10 23:42N 14°30' W 061°05'0 0.0
2018-Apr-10 23:27N 14°30' W 061°05'0 0.0
2018-Apr-10 22:54N 14°30' W 061°05'0 0.0
2018-Apr-10 22:30N 14°30' W 061°05'0 0.0
2018-Apr-10 20:14N 14°30' W 061°05'0 0.0
2018-Apr-10 19:53N 14°30' W 061°05'0 0.0
2018-Apr-10 19:23N 14°30' W 061°05'0 0.0
2018-Apr-10 14:50N 14°30' W 061°05'0 0.0
2018-Apr-10 11:35N 14°30' W 061°05'0 0.0
2018-Apr-10 11:29N 14°30' W 061°05'0 0.0
2018-Apr-10 10:53N 14°30' W 061°05'0 0.0
2018-Apr-10 10:23N 14°30' W 061°05'0 0.0
2018-Apr-10 08:51N 14°30' W 061°05'0 0.0
2018-Apr-10 08:30N 14°30' W 061°05'0 0.0
2018-Apr-10 07:53N 14°30' W 061°05'0 0.0
2018-Apr-10 07:21N 14°30' W 061°05'0 0.0
2018-Apr-10 06:56N 14°30' W 061°05'0 0.0
2018-Apr-10 06:25N 14°30' W 061°05'0 0.0
2018-Apr-10 05:58N 14°30' W 061°05'0 0.0
2018-Apr-10 04:46N 14°30' W 061°05'0 0.0
2018-Apr-10 04:29N 14°30' W 061°05'0 0.0
2018-Apr-10 03:59N 14°30' W 061°05'0 0.0
2018-Apr-10 03:26N 14°30' W 061°05'0 0.0
2018-Apr-10 02:59N 14°30' W 061°05'0 0.0
2018-Apr-10 02:29N 14°30' W 061°05'0 0.0
2018-Apr-10 01:53N 14°30' W 061°05'0 0.0
2018-Apr-10 01:26N 14°30' W 061°05'0 0.0
2018-Apr-10 00:41N 14°30' W 061°05'0 0.0
2018-Apr-10 00:23N 14°30' W 061°05'0 0.0
2018-Apr-09 23:23N 14°30' W 061°05'0 0.0
2018-Apr-09 22:57N 14°30' W 061°05'0 0.0
2018-Apr-09 22:20N 14°30' W 061°05'0 0.0
2018-Apr-09 21:59N 14°30' W 061°05'5 0.2
2018-Apr-08 16:11N 14°27' W 061°01'1 6.9
2018-Apr-08 16:00N 14°27' W 060°60'3 6.5
2018-Apr-08 15:30N 14°26' W 060°56'3 5.7
2018-Apr-08 15:00N 14°26' W 060°53'0 0.0
2018-Apr-08 14:30N 14°26' W 060°53'0 0.0
2018-Apr-08 14:00N 14°26' W 060°53'0 0.0
2018-Apr-08 13:30N 14°26' W 060°53'0 0.0
2018-Apr-08 13:00N 14°26' W 060°53'0 0.0
2018-Apr-08 12:30N 14°26' W 060°53'0 0.0
2018-Apr-08 12:00N 14°26' W 060°53'0 0.0
2018-Apr-08 11:30N 14°26' W 060°53'0 0.0
2018-Apr-08 10:58N 14°26' W 060°53'0 0.0
2018-Apr-08 10:30N 14°26' W 060°53'0 0.0
2018-Apr-08 10:00N 14°26' W 060°53'0 0.0
2018-Apr-08 09:29N 14°26' W 060°53'0 0.0
2018-Apr-08 09:00N 14°26' W 060°53'0 0.0
2018-Apr-08 08:28N 14°26' W 060°53'0 0.0
2018-Apr-08 08:00N 14°26' W 060°53'0 0.0
2018-Apr-08 07:30N 14°26' W 060°53'0 0.0
2018-Apr-08 07:00N 14°26' W 060°53'0 0.0
2018-Apr-08 06:30N 14°26' W 060°53'0 0.0
2018-Apr-08 05:59N 14°26' W 060°53'0 0.0
2018-Apr-08 05:31N 14°26' W 060°53'0 0.0
2018-Apr-08 05:00N 14°26' W 060°53'0 0.0
2018-Apr-08 04:30N 14°26' W 060°53'0 0.0
2018-Apr-08 04:00N 14°26' W 060°53'0 0.0
2018-Apr-08 03:28N 14°26' W 060°53'0 0.0
2018-Apr-08 03:00N 14°26' W 060°53'0 0.0
2018-Apr-08 02:28N 14°26' W 060°53'0 0.0
2018-Apr-08 01:58N 14°26' W 060°53'0 0.0
2018-Apr-08 01:27N 14°26' W 060°53'0 0.0
2018-Apr-08 00:54N 14°26' W 060°53'0 0.0
2018-Apr-08 00:30N 14°26' W 060°53'0 0.0
2018-Apr-08 00:00N 14°26' W 060°53'0 0.0
2018-Apr-07 23:30N 14°26' W 060°53'0 0.0
2018-Apr-07 23:00N 14°26' W 060°53'0 0.0
2018-Apr-07 22:28N 14°26' W 060°53'0 0.0
2018-Apr-07 22:00N 14°26' W 060°53'0 0.0
2018-Apr-07 21:30N 14°26' W 060°53'0 0.0
2018-Apr-07 20:58N 14°26' W 060°53'0 0.0
2018-Apr-07 20:30N 14°26' W 060°53'0 0.0
2018-Apr-07 19:58N 14°26' W 060°53'0 0.0
2018-Apr-07 19:28N 14°26' W 060°53'0 0.0
2018-Apr-07 19:00N 14°26' W 060°53'0 0.0
2018-Apr-07 18:30N 14°26' W 060°53'0 0.0
2018-Apr-07 17:59N 14°26' W 060°53'0 0.0
2018-Apr-07 17:30N 14°26' W 060°53'0 0.0
2018-Apr-07 16:58N 14°26' W 060°53'0 0.0
2018-Apr-07 16:28N 14°26' W 060°53'0 0.0
2018-Apr-07 16:00N 14°26' W 060°53'0 0.0
2018-Apr-07 15:30N 14°26' W 060°53'0 0.0
2018-Apr-07 15:00N 14°26' W 060°53'0 0.0
2018-Apr-07 14:28N 14°26' W 060°53'0 0.0
2018-Apr-07 14:00N 14°26' W 060°53'0 0.0
2018-Apr-07 13:30N 14°26' W 060°53'0 0.0
2018-Apr-07 13:00N 14°26' W 060°53'0 0.0
2018-Apr-07 12:28N 14°26' W 060°53'0 0.0
2018-Apr-07 12:00N 14°26' W 060°53'0 0.0
2018-Apr-07 11:28N 14°26' W 060°53'0 0.0
2018-Apr-07 10:58N 14°26' W 060°53'0 0.0
2018-Apr-07 10:30N 14°26' W 060°53'0 0.0
2018-Apr-07 10:00N 14°26' W 060°53'0 0.0
2018-Apr-07 09:30N 14°26' W 060°53'0 0.0
2018-Apr-07 08:58N 14°26' W 060°53'0 0.0
2018-Apr-07 08:30N 14°26' W 060°53'0 0.0
2018-Apr-07 08:00N 14°26' W 060°53'0 0.0
2018-Apr-07 07:28N 14°26' W 060°53'0 0.0
2018-Apr-07 07:00N 14°26' W 060°53'0 0.0
2018-Apr-07 06:30N 14°26' W 060°53'0 0.0
2018-Apr-07 06:00N 14°26' W 060°53'0 0.0
2018-Apr-07 05:30N 14°26' W 060°53'0 0.0
2018-Apr-07 05:00N 14°26' W 060°53'0 0.0
2018-Apr-07 04:28N 14°26' W 060°53'0 0.0
2018-Apr-07 04:00N 14°26' W 060°53'0 0.0
2018-Apr-07 03:30N 14°26' W 060°53'0 0.0
2018-Apr-07 02:58N 14°26' W 060°53'0 0.0
2018-Apr-07 02:30N 14°26' W 060°53'0 0.0
2018-Apr-07 01:58N 14°26' W 060°53'0 0.0
2018-Apr-07 01:30N 14°26' W 060°53'0 0.0
2018-Apr-07 00:58N 14°26' W 060°53'0 0.0
2018-Apr-07 00:25N 14°26' W 060°53'0 0.0
2018-Apr-07 00:00N 14°26' W 060°53'0 0.0
2018-Apr-06 23:25N 14°26' W 060°53'0 0.0
2018-Apr-06 22:58N 14°26' W 060°53'0 0.0
2018-Apr-06 22:28N 14°26' W 060°53'0 0.0
2018-Apr-06 22:00N 14°26' W 060°53'0 0.0
2018-Apr-06 21:28N 14°26' W 060°53'0 0.0
2018-Apr-06 21:00N 14°26' W 060°53'0 0.0
2018-Apr-06 20:30N 14°26' W 060°53'0 0.0
2018-Apr-06 20:00N 14°26' W 060°53'0 0.0
2018-Apr-06 19:30N 14°26' W 060°53'0 0.0
2018-Apr-06 18:58N 14°26' W 060°53'0 0.0
2018-Apr-06 18:30N 14°26' W 060°53'0 0.1
2018-Apr-06 18:00N 14°26' W 060°53'0 0.0
2018-Apr-06 17:30N 14°26' W 060°53'0 0.0
2018-Apr-06 16:58N 14°26' W 060°53'0 0.0
2018-Apr-06 16:28N 14°26' W 060°53'0 0.0
2018-Apr-06 16:00N 14°26' W 060°53'0 0.0
2018-Apr-06 15:30N 14°26' W 060°53'0 0.0
2018-Apr-06 15:00N 14°26' W 060°53'0 0.0
2018-Apr-06 14:31N 14°26' W 060°53'0 0.0
2018-Apr-06 14:00N 14°26' W 060°53'0 0.0
2018-Apr-06 13:30N 14°26' W 060°53'0 0.0
2018-Apr-06 13:00N 14°26' W 060°53'0 0.0
2018-Apr-06 12:30N 14°26' W 060°53'0 0.0
2018-Apr-06 12:00N 14°26' W 060°53'0 0.0
2018-Apr-06 11:30N 14°26' W 060°53'0 0.0
2018-Apr-06 02:00N 14°26' W 060°53'0 0.0
2018-Apr-06 01:30N 14°26' W 060°53'0 0.0
2018-Apr-06 01:00N 14°26' W 060°53'0 0.0
2018-Apr-06 00:29N 14°26' W 060°53'0 0.0
2018-Apr-06 00:00N 14°26' W 060°53'0 0.0
2018-Apr-05 23:30N 14°26' W 060°53'0 0.0
2018-Apr-05 23:00N 14°26' W 060°53'0 0.0
2018-Apr-05 21:06N 14°26' W 060°53'0 0.0
2018-Apr-05 21:00N 14°26' W 060°53'0 0.0
2018-Apr-05 20:29N 14°26' W 060°53'0 0.0
2018-Apr-05 20:00N 14°26' W 060°53'0 0.0
2018-Apr-05 19:30N 14°26' W 060°53'0 0.0
2018-Apr-05 18:59N 14°26' W 060°53'0 0.0
2018-Apr-05 18:30N 14°26' W 060°53'0 0.0
2018-Apr-05 18:00N 14°26' W 060°53'0 0.0
2018-Apr-05 17:29N 14°26' W 060°53'0 0.0
2018-Apr-05 16:59N 14°26' W 060°53'0 0.0
2018-Apr-05 16:30N 14°26' W 060°53'0 0.0
2018-Apr-05 16:00N 14°26' W 060°53'0 0.0
2018-Apr-05 15:29N 14°26' W 060°53'0 0.0
2018-Apr-05 15:00N 14°26' W 060°53'0 0.0
2018-Apr-05 14:30N 14°26' W 060°53'0 0.0
2018-Apr-05 14:00N 14°26' W 060°53'0 0.0
2018-Apr-05 13:29N 14°26' W 060°53'0 0.0
2018-Apr-05 13:00N 14°26' W 060°53'0 0.0
2018-Apr-05 12:30N 14°26' W 060°53'0 0.0
2018-Apr-05 12:00N 14°26' W 060°53'0 0.0
2018-Apr-05 11:30N 14°26' W 060°53'0 0.0
2018-Apr-05 10:59N 14°26' W 060°53'0 0.0
2018-Apr-05 10:29N 14°26' W 060°53'0 0.0
2018-Apr-05 09:59N 14°26' W 060°53'0 0.0
2018-Apr-05 09:30N 14°26' W 060°53'0 0.0
2018-Apr-05 09:00N 14°26' W 060°53'0 0.0
2018-Apr-05 08:30N 14°26' W 060°53'0 0.0
2018-Apr-05 08:00N 14°26' W 060°53'0 0.0
2018-Apr-05 07:30N 14°26' W 060°53'0 0.0
2018-Apr-05 07:00N 14°26' W 060°53'0 0.0
2018-Apr-05 06:30N 14°26' W 060°53'0 0.0
2018-Apr-05 05:59N 14°26' W 060°53'0 0.0
2018-Apr-05 05:30N 14°26' W 060°53'0 0.0
2018-Apr-05 05:00N 14°26' W 060°53'0 0.0
2018-Apr-05 04:30N 14°26' W 060°53'0 0.0
2018-Apr-05 04:00N 14°26' W 060°53'0 0.0
2018-Apr-05 03:24N 14°26' W 060°53'0 0.0
2018-Apr-05 03:00N 14°26' W 060°53'0 0.0
2018-Apr-05 02:29N 14°26' W 060°53'0 0.0
2018-Apr-05 01:59N 14°26' W 060°53'0 0.0
2018-Apr-05 01:30N 14°26' W 060°53'0 0.0
2018-Apr-05 00:59N 14°26' W 060°53'0 0.0
2018-Apr-05 00:30N 14°26' W 060°53'0 0.0
2018-Apr-05 00:00N 14°26' W 060°53'0 0.0
2018-Apr-04 23:30N 14°26' W 060°53'0 0.0
2018-Apr-04 23:00N 14°26' W 060°53'0 0.0
2018-Apr-04 22:29N 14°26' W 060°53'0 0.0
2018-Apr-04 22:00N 14°26' W 060°53'0 0.0
2018-Apr-04 21:30N 14°26' W 060°53'0 0.0
2018-Apr-04 21:00N 14°26' W 060°53'0 0.0
2018-Apr-04 20:29N 14°26' W 060°53'0 0.0
2018-Apr-04 20:00N 14°26' W 060°53'0 0.0
2018-Apr-04 19:25N 14°26' W 060°53'0 0.0
2018-Apr-04 19:00N 14°26' W 060°53'0 0.0
2018-Apr-04 15:19N 14°26' W 060°53'0 0.0
2018-Apr-04 15:00N 14°26' W 060°53'0 0.0
2018-Apr-04 14:30N 14°26' W 060°53'0 0.0
2018-Apr-04 14:00N 14°26' W 060°53'0 0.0
2018-Apr-04 13:30N 14°26' W 060°53'0 0.0
2018-Apr-04 12:42N 14°26' W 060°53'0 0.0
2018-Apr-04 12:28N 14°26' W 060°53'0 0.0
2018-Apr-04 12:00N 14°26' W 060°53'0 0.0
2018-Apr-04 11:28N 14°26' W 060°53'0 0.0
2018-Apr-04 11:00N 14°26' W 060°53'0 0.0
2018-Apr-04 10:28N 14°26' W 060°53'0 0.0
2018-Apr-04 10:00N 14°26' W 060°53'0 0.0
2018-Apr-04 09:30N 14°26' W 060°53'0 0.0
2018-Apr-04 09:00N 14°26' W 060°53'0 0.0
2018-Apr-04 08:28N 14°26' W 060°53'0 0.0
2018-Apr-04 08:00N 14°26' W 060°53'0 0.0
2018-Apr-04 07:28N 14°26' W 060°53'0 0.0
2018-Apr-04 07:00N 14°26' W 060°53'0 0.0
2018-Apr-04 06:30N 14°26' W 060°53'0 0.0
2018-Apr-04 05:58N 14°26' W 060°53'0 0.0
2018-Apr-04 05:28N 14°26' W 060°53'0 0.0
2018-Apr-04 04:58N 14°26' W 060°53'0 0.0
2018-Apr-04 04:28N 14°26' W 060°53'0 0.0
2018-Apr-04 03:58N 14°26' W 060°53'0 0.0
2018-Apr-04 03:28N 14°26' W 060°53'0 0.0
2018-Apr-04 02:58N 14°26' W 060°53'0 0.0
2018-Apr-04 02:28N 14°26' W 060°53'0 0.0
2018-Apr-04 01:58N 14°26' W 060°53'0 0.0
2018-Apr-04 01:28N 14°26' W 060°53'0 0.0
2018-Apr-04 00:58N 14°26' W 060°53'0 0.0
2018-Apr-04 00:28N 14°26' W 060°53'0 0.0
2018-Apr-03 23:58N 14°26' W 060°53'0 0.0
2018-Apr-03 23:28N 14°26' W 060°53'0 0.0
2018-Apr-03 22:58N 14°26' W 060°53'0 0.0
2018-Apr-03 22:28N 14°26' W 060°53'0 0.0
2018-Apr-03 21:58N 14°26' W 060°53'0 0.0
2018-Apr-03 21:28N 14°26' W 060°53'0 0.0
2018-Apr-03 21:00N 14°26' W 060°53'0 0.0
2018-Apr-03 20:30N 14°26' W 060°53'0 0.0
2018-Apr-03 20:00N 14°26' W 060°53'0 0.0
2018-Apr-03 19:30N 14°26' W 060°53'0 0.0
2018-Apr-03 19:00N 14°26' W 060°53'  
Track history (hours):
 
Tides and Currents Weather Stations Pressure Air Temp Water Temp Dewpoint Dewpoint Depression Visibility Wind Speed Wind Dir Waves Ship Positions

MiSS Pezi

Last reported at 2018-Apr-13 18:39 UTC. Time now 2018-Apr-20 12:47 UTC.
Position N 14°33' W 061°03'.

Length 20 m; draft 2 m.

Type: Pleasure craft. MMSI: 203287200.

Date/timePositionNaut miles runAvg speedWind from/ knotsBaromVisibWave heightAir tempDewpointWater temp
2018-Apr-13 18:39N 14°33' W 061°03'0 0.1
2018-Apr-13 18:24N 14°33' W 061°03'0 0.0
2018-Apr-13 17:58N 14°33' W 061°03'0 0.0
2018-Apr-13 17:30N 14°33' W 061°03'2 0.1
2018-Apr-12 15:50N 14°33' W 061°05'3 6.3
2018-Apr-12 15:23N 14°30' W 061°06'1 1.9
2018-Apr-12 14:52N 14°30' W 061°05'0 0.0
2018-Apr-12 14:29N 14°30' W 061°05'0 0.0
2018-Apr-12 13:40N 14°30' W 061°05'0 0.0
2018-Apr-12 13:29N 14°30' W 061°05'0 0.0
2018-Apr-12 12:58N 14°30' W 061°05'0 0.0
2018-Apr-12 12:28N 14°30' W 061°05'0 0.0
2018-Apr-12 11:43N 14°30' W 061°05'0 0.0
2018-Apr-12 11:25N 14°30' W 061°05'0 0.0
2018-Apr-12 10:40N 14°30' W 061°05'0 0.0
2018-Apr-12 09:43N 14°30' W 061°05'0 0.0
2018-Apr-12 09:28N 14°30' W 061°05'0 0.0
2018-Apr-12 08:49N 14°30' W 061°05'0 0.0
2018-Apr-12 08:28N 14°30' W 061°05'0 0.0
2018-Apr-12 07:56N 14°30' W 061°05'0 0.0
2018-Apr-12 07:20N 14°30' W 061°05'0 0.0
2018-Apr-12 06:58N 14°30' W 061°05'0 0.0
2018-Apr-12 06:28N 14°30' W 061°05'0 0.0
2018-Apr-12 05:55N 14°30' W 061°05'0 0.0
2018-Apr-12 05:28N 14°30' W 061°05'0 0.0
2018-Apr-12 04:55N 14°30' W 061°05'0 0.0
2018-Apr-12 04:28N 14°30' W 061°05'0 0.0
2018-Apr-12 03:53N 14°30' W 061°05'0 0.0
2018-Apr-12 03:23N 14°30' W 061°05'0 0.0
2018-Apr-11 07:44N 14°30' W 061°05'0 0.0
2018-Apr-11 06:35N 14°30' W 061°05'0 0.0
2018-Apr-11 06:25N 14°30' W 061°05'0 0.0
2018-Apr-11 05:55N 14°30' W 061°05'0 0.0
2018-Apr-11 05:13N 14°30' W 061°05'0 0.0
2018-Apr-11 04:55N 14°30' W 061°05'0 0.0
2018-Apr-11 04:22N 14°30' W 061°05'0 0.0
2018-Apr-11 03:52N 14°30' W 061°05'0 0.0
2018-Apr-11 03:22N 14°30' W 061°05'0 0.0
2018-Apr-11 02:55N 14°30' W 061°05'0 0.0
2018-Apr-11 02:28N 14°30' W 061°05'0 0.0
2018-Apr-11 01:58N 14°30' W 061°05'0 0.0
2018-Apr-11 01:28N 14°30' W 061°05'0 0.0
2018-Apr-11 00:58N 14°30' W 061°05'0 0.0
2018-Apr-11 00:25N 14°30' W 061°05'0 0.0
2018-Apr-10 23:42N 14°30' W 061°05'0 0.0
2018-Apr-10 23:27N 14°30' W 061°05'0 0.0
2018-Apr-10 22:54N 14°30' W 061°05'0 0.0
2018-Apr-10 22:30N 14°30' W 061°05'0 0.0
2018-Apr-10 20:14N 14°30' W 061°05'0 0.0
2018-Apr-10 19:53N 14°30' W 061°05'0 0.0
2018-Apr-10 19:23N 14°30' W 061°05'0 0.0
2018-Apr-10 14:50N 14°30' W 061°05'0 0.0
2018-Apr-10 11:35N 14°30' W 061°05'0 0.0
2018-Apr-10 11:29N 14°30' W 061°05'0 0.0
2018-Apr-10 10:53N 14°30' W 061°05'0 0.0
2018-Apr-10 10:23N 14°30' W 061°05'0 0.0
2018-Apr-10 08:51N 14°30' W 061°05'0 0.0
2018-Apr-10 08:30N 14°30' W 061°05'0 0.0
2018-Apr-10 07:53N 14°30' W 061°05'0 0.0
2018-Apr-10 07:21N 14°30' W 061°05'0 0.0
2018-Apr-10 06:56N 14°30' W 061°05'0 0.0
2018-Apr-10 06:25N 14°30' W 061°05'0 0.0
2018-Apr-10 05:58N 14°30' W 061°05'0 0.0
2018-Apr-10 04:46N 14°30' W 061°05'0 0.0
2018-Apr-10 04:29N 14°30' W 061°05'0 0.0
2018-Apr-10 03:59N 14°30' W 061°05'0 0.0
2018-Apr-10 03:26N 14°30' W 061°05'0 0.0
2018-Apr-10 02:59N 14°30' W 061°05'0 0.0
2018-Apr-10 02:29N 14°30' W 061°05'0 0.0
2018-Apr-10 01:53N 14°30' W 061°05'0 0.0
2018-Apr-10 01:26N 14°30' W 061°05'0 0.0
2018-Apr-10 00:41N 14°30' W 061°05'0 0.0
2018-Apr-10 00:23N 14°30' W 061°05'0 0.0
2018-Apr-09 23:23N 14°30' W 061°05'0 0.0
2018-Apr-09 22:57N 14°30' W 061°05'0 0.0
2018-Apr-09 22:20N 14°30' W 061°05'0 0.0
2018-Apr-09 21:59N 14°30' W 061°05'5 0.2
2018-Apr-08 16:11N 14°27' W 061°01'1 6.9
2018-Apr-08 16:00N 14°27' W 060°60'3 6.5
2018-Apr-08 15:30N 14°26' W 060°56'3 5.7
2018-Apr-08 15:00N 14°26' W 060°53'0 0.0
2018-Apr-08 14:30N 14°26' W 060°53'0 0.0
2018-Apr-08 14:00N 14°26' W 060°53'0 0.0
2018-Apr-08 13:30N 14°26' W 060°53'0 0.0
2018-Apr-08 13:00N 14°26' W 060°53'0 0.0
2018-Apr-08 12:30N 14°26' W 060°53'0 0.0
2018-Apr-08 12:00N 14°26' W 060°53'0 0.0
2018-Apr-08 11:30N 14°26' W 060°53'0 0.0
2018-Apr-08 10:58N 14°26' W 060°53'0 0.0
2018-Apr-08 10:30N 14°26' W 060°53'0 0.0
2018-Apr-08 10:00N 14°26' W 060°53'0 0.0
2018-Apr-08 09:29N 14°26' W 060°53'0 0.0
2018-Apr-08 09:00N 14°26' W 060°53'0 0.0
2018-Apr-08 08:28N 14°26' W 060°53'0 0.0
2018-Apr-08 08:00N 14°26' W 060°53'0 0.0
2018-Apr-08 07:30N 14°26' W 060°53'0 0.0
2018-Apr-08 07:00N 14°26' W 060°53'0 0.0
2018-Apr-08 06:30N 14°26' W 060°53'0 0.0
2018-Apr-08 05:59N 14°26' W 060°53'0 0.0
2018-Apr-08 05:31N 14°26' W 060°53'0 0.0
2018-Apr-08 05:00N 14°26' W 060°53'0 0.0
2018-Apr-08 04:30N 14°26' W 060°53'0 0.0
2018-Apr-08 04:00N 14°26' W 060°53'0 0.0
2018-Apr-08 03:28N 14°26' W 060°53'0 0.0
2018-Apr-08 03:00N 14°26' W 060°53'0 0.0
2018-Apr-08 02:28N 14°26' W 060°53'0 0.0
2018-Apr-08 01:58N 14°26' W 060°53'0 0.0
2018-Apr-08 01:27N 14°26' W 060°53'0 0.0
2018-Apr-08 00:54N 14°26' W 060°53'0 0.0
2018-Apr-08 00:30N 14°26' W 060°53'0 0.0
2018-Apr-08 00:00N 14°26' W 060°53'0 0.0
2018-Apr-07 23:30N 14°26' W 060°53'0 0.0
2018-Apr-07 23:00N 14°26' W 060°53'0 0.0
2018-Apr-07 22:28N 14°26' W 060°53'0 0.0
2018-Apr-07 22:00N 14°26' W 060°53'0 0.0
2018-Apr-07 21:30N 14°26' W 060°53'0 0.0
2018-Apr-07 20:58N 14°26' W 060°53'0 0.0
2018-Apr-07 20:30N 14°26' W 060°53'0 0.0
2018-Apr-07 19:58N 14°26' W 060°53'0 0.0
2018-Apr-07 19:28N 14°26' W 060°53'0 0.0
2018-Apr-07 19:00N 14°26' W 060°53'0 0.0
2018-Apr-07 18:30N 14°26' W 060°53'0 0.0
2018-Apr-07 17:59N 14°26' W 060°53'0 0.0
2018-Apr-07 17:30N 14°26' W 060°53'0 0.0
2018-Apr-07 16:58N 14°26' W 060°53'0 0.0
2018-Apr-07 16:28N 14°26' W 060°53'0 0.0
2018-Apr-07 16:00N 14°26' W 060°53'0 0.0
2018-Apr-07 15:30N 14°26' W 060°53'0 0.0
2018-Apr-07 15:00N 14°26' W 060°53'0 0.0
2018-Apr-07 14:28N 14°26' W 060°53'0 0.0
2018-Apr-07 14:00N 14°26' W 060°53'0 0.0
2018-Apr-07 13:30N 14°26' W 060°53'0 0.0
2018-Apr-07 13:00N 14°26' W 060°53'0 0.0
2018-Apr-07 12:28N 14°26' W 060°53'0 0.0
2018-Apr-07 12:00N 14°26' W 060°53'0 0.0
2018-Apr-07 11:28N 14°26' W 060°53'0 0.0
2018-Apr-07 10:58N 14°26' W 060°53'0 0.0
2018-Apr-07 10:30N 14°26' W 060°53'0 0.0
2018-Apr-07 10:00N 14°26' W 060°53'0 0.0
2018-Apr-07 09:30N 14°26' W 060°53'0 0.0
2018-Apr-07 08:58N 14°26' W 060°53'0 0.0
2018-Apr-07 08:30N 14°26' W 060°53'0 0.0
2018-Apr-07 08:00N 14°26' W 060°53'0 0.0
2018-Apr-07 07:28N 14°26' W 060°53'0 0.0
2018-Apr-07 07:00N 14°26' W 060°53'0 0.0
2018-Apr-07 06:30N 14°26' W 060°53'0 0.0
2018-Apr-07 06:00N 14°26' W 060°53'0 0.0
2018-Apr-07 05:30N 14°26' W 060°53'0 0.0
2018-Apr-07 05:00N 14°26' W 060°53'0 0.0
2018-Apr-07 04:28N 14°26' W 060°53'0 0.0
2018-Apr-07 04:00N 14°26' W 060°53'0 0.0
2018-Apr-07 03:30N 14°26' W 060°53'0 0.0
2018-Apr-07 02:58N 14°26' W 060°53'0 0.0
2018-Apr-07 02:30N 14°26' W 060°53'0 0.0
2018-Apr-07 01:58N 14°26' W 060°53'0 0.0
2018-Apr-07 01:30N 14°26' W 060°53'0 0.0
2018-Apr-07 00:58N 14°26' W 060°53'0 0.0
2018-Apr-07 00:25N 14°26' W 060°53'0 0.0
2018-Apr-07 00:00N 14°26' W 060°53'0 0.0
2018-Apr-06 23:25N 14°26' W 060°53'0 0.0
2018-Apr-06 22:58N 14°26' W 060°53'0 0.0
2018-Apr-06 22:28N 14°26' W 060°53'0 0.0
2018-Apr-06 22:00N 14°26' W 060°53'0 0.0
2018-Apr-06 21:28N 14°26' W 060°53'0 0.0
2018-Apr-06 21:00N 14°26' W 060°53'0 0.0
2018-Apr-06 20:30N 14°26' W 060°53'0 0.0
2018-Apr-06 20:00N 14°26' W 060°53'0 0.0
2018-Apr-06 19:30N 14°26' W 060°53'0 0.0
2018-Apr-06 18:58N 14°26' W 060°53'0 0.0
2018-Apr-06 18:30N 14°26' W 060°53'0 0.1
2018-Apr-06 18:00N 14°26' W 060°53'0 0.0
2018-Apr-06 17:30N 14°26' W 060°53'0 0.0
2018-Apr-06 16:58N 14°26' W 060°53'0 0.0
2018-Apr-06 16:28N 14°26' W 060°53'0 0.0
2018-Apr-06 16:00N 14°26' W 060°53'0 0.0
2018-Apr-06 15:30N 14°26' W 060°53'0 0.0
2018-Apr-06 15:00N 14°26' W 060°53'0 0.0
2018-Apr-06 14:31N 14°26' W 060°53'0 0.0
2018-Apr-06 14:00N 14°26' W 060°53'0 0.0
2018-Apr-06 13:30N 14°26' W 060°53'0 0.0
2018-Apr-06 13:00N 14°26' W 060°53'0 0.0
2018-Apr-06 12:30N 14°26' W 060°53'0 0.0
2018-Apr-06 12:00N 14°26' W 060°53'0 0.0
2018-Apr-06 11:30N 14°26' W 060°53'0 0.0
2018-Apr-06 02:00N 14°26' W 060°53'0 0.0
2018-Apr-06 01:30N 14°26' W 060°53'0 0.0
2018-Apr-06 01:00N 14°26' W 060°53'0 0.0
2018-Apr-06 00:29N 14°26' W 060°53'0 0.0
2018-Apr-06 00:00N 14°26' W 060°53'0 0.0
2018-Apr-05 23:30N 14°26' W 060°53'0 0.0
2018-Apr-05 23:00N 14°26' W 060°53'0 0.0
2018-Apr-05 21:06N 14°26' W 060°53'0 0.0
2018-Apr-05 21:00N 14°26' W 060°53'0 0.0
2018-Apr-05 20:29N 14°26' W 060°53'0 0.0
2018-Apr-05 20:00N 14°26' W 060°53'0 0.0
2018-Apr-05 19:30N 14°26' W 060°53'0 0.0
2018-Apr-05 18:59N 14°26' W 060°53'0 0.0
2018-Apr-05 18:30N 14°26' W 060°53'0 0.0
2018-Apr-05 18:00N 14°26' W 060°53'0 0.0
2018-Apr-05 17:29N 14°26' W 060°53'0 0.0
2018-Apr-05 16:59N 14°26' W 060°53'0 0.0
2018-Apr-05 16:30N 14°26' W 060°53'0 0.0
2018-Apr-05 16:00N 14°26' W 060°53'0 0.0
2018-Apr-05 15:29N 14°26' W 060°53'0 0.0
2018-Apr-05 15:00N 14°26' W 060°53'0 0.0
2018-Apr-05 14:30N 14°26' W 060°53'0 0.0
2018-Apr-05 14:00N 14°26' W 060°53'0 0.0
2018-Apr-05 13:29N 14°26' W 060°53'0 0.0
2018-Apr-05 13:00N 14°26' W 060°53'0 0.0
2018-Apr-05 12:30N 14°26' W 060°53'0 0.0
2018-Apr-05 12:00N 14°26' W 060°53'0 0.0
2018-Apr-05 11:30N 14°26' W 060°53'0 0.0
2018-Apr-05 10:59N 14°26' W 060°53'0 0.0
2018-Apr-05 10:29N 14°26' W 060°53'0 0.0
2018-Apr-05 09:59N 14°26' W 060°53'0 0.0
2018-Apr-05 09:30N 14°26' W 060°53'0 0.0
2018-Apr-05 09:00N 14°26' W 060°53'0 0.0
2018-Apr-05 08:30N 14°26' W 060°53'0 0.0
2018-Apr-05 08:00N 14°26' W 060°53'0 0.0
2018-Apr-05 07:30N 14°26' W 060°53'0 0.0
2018-Apr-05 07:00N 14°26' W 060°53'0 0.0
2018-Apr-05 06:30N 14°26' W 060°53'0 0.0
2018-Apr-05 05:59N 14°26' W 060°53'0 0.0
2018-Apr-05 05:30N 14°26' W 060°53'0 0.0
2018-Apr-05 05:00N 14°26' W 060°53'0 0.0
2018-Apr-05 04:30N 14°26' W 060°53'0 0.0
2018-Apr-05 04:00N 14°26' W 060°53'0 0.0
2018-Apr-05 03:24N 14°26' W 060°53'0 0.0
2018-Apr-05 03:00N 14°26' W 060°53'0 0.0
2018-Apr-05 02:29N 14°26' W 060°53'0 0.0
2018-Apr-05 01:59N 14°26' W 060°53'0 0.0
2018-Apr-05 01:30N 14°26' W 060°53'0 0.0
2018-Apr-05 00:59N 14°26' W 060°53'0 0.0
2018-Apr-05 00:30N 14°26' W 060°53'0 0.0
2018-Apr-05 00:00N 14°26' W 060°53'0 0.0
2018-Apr-04 23:30N 14°26' W 060°53'0 0.0
2018-Apr-04 23:00N 14°26' W 060°53'0 0.0
2018-Apr-04 22:29N 14°26' W 060°53'0 0.0
2018-Apr-04 22:00N 14°26' W 060°53'0 0.0
2018-Apr-04 21:30N 14°26' W 060°53'0 0.0
2018-Apr-04 21:00N 14°26' W 060°53'0 0.0
2018-Apr-04 20:29N 14°26' W 060°53'0 0.0
2018-Apr-04 20:00N 14°26' W 060°53'0 0.0
2018-Apr-04 19:25N 14°26' W 060°53'0 0.0
2018-Apr-04 19:00N 14°26' W 060°53'0 0.0
2018-Apr-04 15:19N 14°26' W 060°53'0 0.0
2018-Apr-04 15:00N 14°26' W 060°53'0 0.0
2018-Apr-04 14:30N 14°26' W 060°53'0 0.0
2018-Apr-04 14:00N 14°26' W 060°53'0 0.0
2018-Apr-04 13:30N 14°26' W 060°53'0 0.0
2018-Apr-04 12:42N 14°26' W 060°53'0 0.0
2018-Apr-04 12:28N 14°26' W 060°53'0 0.0
2018-Apr-04 12:00N 14°26' W 060°53'0 0.0
2018-Apr-04 11:28N 14°26' W 060°53'0 0.0
2018-Apr-04 11:00N 14°26' W 060°53'0 0.0
2018-Apr-04 10:28N 14°26' W 060°53'0 0.0
2018-Apr-04 10:00N 14°26' W 060°53'0 0.0
2018-Apr-04 09:30N 14°26' W 060°53'0 0.0
2018-Apr-04 09:00N 14°26' W 060°53'0 0.0
2018-Apr-04 08:28N 14°26' W 060°53'0 0.0
2018-Apr-04 08:00N 14°26' W 060°53'0 0.0
2018-Apr-04 07:28N 14°26' W 060°53'0 0.0
2018-Apr-04 07:00N 14°26' W 060°53'0 0.0
2018-Apr-04 06:30N 14°26' W 060°53'0 0.0
2018-Apr-04 05:58N 14°26' W 060°53'0 0.0
2018-Apr-04 05:28N 14°26' W 060°53'0 0.0
2018-Apr-04 04:58N 14°26' W 060°53'0 0.0
2018-Apr-04 04:28N 14°26' W 060°53'0 0.0
2018-Apr-04 03:58N 14°26' W 060°53'0 0.0
2018-Apr-04 03:28N 14°26' W 060°53'0 0.0
2018-Apr-04 02:58N 14°26' W 060°53'0 0.0
2018-Apr-04 02:28N 14°26' W 060°53'0 0.0
2018-Apr-04 01:58N 14°26' W 060°53'0 0.0
2018-Apr-04 01:28N 14°26' W 060°53'0 0.0
2018-Apr-04 00:58N 14°26' W 060°53'0 0.0
2018-Apr-04 00:28N 14°26' W 060°53'0 0.0
2018-Apr-03 23:58N 14°26' W 060°53'0 0.0
2018-Apr-03 23:28N 14°26' W 060°53'0 0.0
2018-Apr-03 22:58N 14°26' W 060°53'0 0.0
2018-Apr-03 22:28N 14°26' W 060°53'0 0.0
2018-Apr-03 21:58N 14°26' W 060°53'0 0.0
2018-Apr-03 21:28N 14°26' W 060°53'0 0.0
2018-Apr-03 21:00N 14°26' W 060°53'0 0.0
2018-Apr-03 20:30N 14°26' W 060°53'0 0.0
2018-Apr-03 20:00N 14°26' W 060°53'0 0.0
2018-Apr-03 19:30N 14°26' W 060°53'0 0.0
2018-Apr-03 19:00N 14°26' W 060°53'  

Dump ship's entire track history